sensor_id;sensor_type;location;lat;lon;timestamp;temperature;humidity
51950;DHT22;37974;53.218;6.640;2023-08-20T00:01:58;15.40;99.90
51950;DHT22;37974;53.218;6.640;2023-08-20T00:04:26;15.30;99.90
51950;DHT22;37974;53.218;6.640;2023-08-20T00:06:53;15.30;99.90
51950;DHT22;37974;53.218;6.640;2023-08-20T00:09:20;15.30;99.90
51950;DHT22;37974;53.218;6.640;2023-08-20T00:11:45;15.30;99.90
51950;DHT22;37974;53.218;6.640;2023-08-20T00:14:16;15.30;99.90
51950;DHT22;37974;53.218;6.640;2023-08-20T00:16:43;15.30;99.90
51950;DHT22;37974;53.218;6.640;2023-08-20T00:19:09;15.30;99.90
51950;DHT22;37974;53.218;6.640;2023-08-20T00:21:42;15.30;99.90
51950;DHT22;37974;53.218;6.640;2023-08-20T00:24:10;15.30;99.90
51950;DHT22;37974;53.218;6.640;2023-08-20T00:26:36;15.20;99.90
51950;DHT22;37974;53.218;6.640;2023-08-20T00:29:02;15.10;99.90
51950;DHT22;37974;53.218;6.640;2023-08-20T00:31:28;15.10;99.90
51950;DHT22;37974;53.218;6.640;2023-08-20T00:33:54;15.10;99.90
51950;DHT22;37974;53.218;6.640;2023-08-20T00:36:20;15.10;99.90
51950;DHT22;37974;53.218;6.640;2023-08-20T00:38:46;15.10;99.90
51950;DHT22;37974;53.218;6.640;2023-08-20T00:41:11;15.10;99.90
51950;DHT22;37974;53.218;6.640;2023-08-20T00:43:37;15.10;99.90
51950;DHT22;37974;53.218;6.640;2023-08-20T00:46:03;15.10;99.90
51950;DHT22;37974;53.218;6.640;2023-08-20T00:48:29;15.10;99.90
51950;DHT22;37974;53.218;6.640;2023-08-20T00:50:55;15.10;99.90
51950;DHT22;37974;53.218;6.640;2023-08-20T00:53:21;15.10;99.90
51950;DHT22;37974;53.218;6.640;2023-08-20T00:55:47;15.10;99.90
51950;DHT22;37974;53.218;6.640;2023-08-20T00:58:12;15.10;99.90
51950;DHT22;37974;53.218;6.640;2023-08-20T01:00:38;15.00;99.90
51950;DHT22;37974;53.218;6.640;2023-08-20T01:03:04;15.00;99.90
51950;DHT22;37974;53.218;6.640;2023-08-20T01:05:33;14.90;99.90
51950;DHT22;37974;53.218;6.640;2023-08-20T01:08:09;14.90;99.90
51950;DHT22;37974;53.218;6.640;2023-08-20T01:10:56;14.80;99.90
51950;DHT22;37974;53.218;6.640;2023-08-20T01:13:23;14.80;99.90
51950;DHT22;37974;53.218;6.640;2023-08-20T01:15:49;14.80;99.90
51950;DHT22;37974;53.218;6.640;2023-08-20T01:18:14;14.70;99.90
51950;DHT22;37974;53.218;6.640;2023-08-20T01:20:45;14.70;99.90
51950;DHT22;37974;53.218;6.640;2023-08-20T01:23:38;14.70;99.90
51950;DHT22;37974;53.218;6.640;2023-08-20T01:28:55;14.70;99.90
51950;DHT22;37974;53.218;6.640;2023-08-20T01:31:21;14.70;99.90
51950;DHT22;37974;53.218;6.640;2023-08-20T01:33:49;14.70;99.90
51950;DHT22;37974;53.218;6.640;2023-08-20T01:36:17;14.60;99.90
51950;DHT22;37974;53.218;6.640;2023-08-20T01:38:42;14.70;99.90
51950;DHT22;37974;53.218;6.640;2023-08-20T01:41:08;14.70;99.90
51950;DHT22;37974;53.218;6.640;2023-08-20T01:43:34;14.70;99.90
51950;DHT22;37974;53.218;6.640;2023-08-20T01:45:59;14.70;99.90
51950;DHT22;37974;53.218;6.640;2023-08-20T01:48:25;14.60;99.90
51950;DHT22;37974;53.218;6.640;2023-08-20T01:50:51;14.70;99.90
51950;DHT22;37974;53.218;6.640;2023-08-20T01:53:17;14.60;99.90
51950;DHT22;37974;53.218;6.640;2023-08-20T01:55:42;14.60;99.90
51950;DHT22;37974;53.218;6.640;2023-08-20T01:58:08;14.60;99.90
51950;DHT22;37974;53.218;6.640;2023-08-20T02:00:34;14.60;99.90
51950;DHT22;37974;53.218;6.640;2023-08-20T02:02:59;14.60;99.90
51950;DHT22;37974;53.218;6.640;2023-08-20T02:05:25;14.60;99.90
51950;DHT22;37974;53.218;6.640;2023-08-20T02:07:51;14.60;99.90
51950;DHT22;37974;53.218;6.640;2023-08-20T02:10:17;14.60;99.90
51950;DHT22;37974;53.218;6.640;2023-08-20T02:12:43;14.50;99.90
51950;DHT22;37974;53.218;6.640;2023-08-20T02:15:09;14.60;99.90
51950;DHT22;37974;53.218;6.640;2023-08-20T02:17:36;14.60;99.90
51950;DHT22;37974;53.218;6.640;2023-08-20T02:20:02;14.60;99.90
51950;DHT22;37974;53.218;6.640;2023-08-20T02:22:30;14.50;99.90
51950;DHT22;37974;53.218;6.640;2023-08-20T02:24:55;14.50;99.90
51950;DHT22;37974;53.218;6.640;2023-08-20T02:27:21;14.50;99.90
51950;DHT22;37974;53.218;6.640;2023-08-20T02:29:47;14.40;99.90
51950;DHT22;37974;53.218;6.640;2023-08-20T02:32:13;14.40;99.90
51950;DHT22;37974;53.218;6.640;2023-08-20T02:34:38;14.40;99.90
51950;DHT22;37974;53.218;6.640;2023-08-20T02:37:04;14.40;99.90
51950;DHT22;37974;53.218;6.640;2023-08-20T02:39:30;14.40;99.90
51950;DHT22;37974;53.218;6.640;2023-08-20T02:41:57;14.40;99.90
51950;DHT22;37974;53.218;6.640;2023-08-20T02:44:23;14.40;99.90
51950;DHT22;37974;53.218;6.640;2023-08-20T02:46:49;14.40;99.90
51950;DHT22;37974;53.218;6.640;2023-08-20T02:49:14;14.40;99.90
51950;DHT22;37974;53.218;6.640;2023-08-20T02:51:42;14.40;99.90
51950;DHT22;37974;53.218;6.640;2023-08-20T02:54:08;14.40;99.90
51950;DHT22;37974;53.218;6.640;2023-08-20T02:56:33;14.50;99.90
51950;DHT22;37974;53.218;6.640;2023-08-20T02:58:59;14.50;99.90
51950;DHT22;37974;53.218;6.640;2023-08-20T03:01:26;14.70;99.90
51950;DHT22;37974;53.218;6.640;2023-08-20T03:03:52;14.70;99.90
51950;DHT22;37974;53.218;6.640;2023-08-20T03:06:18;14.80;99.90
51950;DHT22;37974;53.218;6.640;2023-08-20T03:08:43;14.80;99.90
51950;DHT22;37974;53.218;6.640;2023-08-20T03:11:09;14.80;99.90
51950;DHT22;37974;53.218;6.640;2023-08-20T03:13:35;14.90;99.90
51950;DHT22;37974;53.218;6.640;2023-08-20T03:16:01;14.80;99.90
51950;DHT22;37974;53.218;6.640;2023-08-20T03:18:27;14.70;99.90
51950;DHT22;37974;53.218;6.640;2023-08-20T03:20:55;14.60;99.90
51950;DHT22;37974;53.218;6.640;2023-08-20T03:23:22;14.60;99.90
51950;DHT22;37974;53.218;6.640;2023-08-20T03:25:47;14.50;99.90
51950;DHT22;37974;53.218;6.640;2023-08-20T03:28:13;14.50;99.90
51950;DHT22;37974;53.218;6.640;2023-08-20T03:30:39;14.40;99.90
51950;DHT22;37974;53.218;6.640;2023-08-20T03:33:04;14.40;99.90
51950;DHT22;37974;53.218;6.640;2023-08-20T03:35:30;14.40;99.90
51950;DHT22;37974;53.218;6.640;2023-08-20T03:37:56;14.30;99.90
51950;DHT22;37974;53.218;6.640;2023-08-20T03:40:21;14.30;99.90
51950;DHT22;37974;53.218;6.640;2023-08-20T03:42:50;14.30;99.90
51950;DHT22;37974;53.218;6.640;2023-08-20T03:45:16;14.30;99.90
51950;DHT22;37974;53.218;6.640;2023-08-20T03:47:42;14.30;99.90
51950;DHT22;37974;53.218;6.640;2023-08-20T03:50:10;14.20;99.90
51950;DHT22;37974;53.218;6.640;2023-08-20T03:52:35;14.20;99.90
51950;DHT22;37974;53.218;6.640;2023-08-20T03:55:02;14.20;99.90
51950;DHT22;37974;53.218;6.640;2023-08-20T03:57:28;14.20;99.90
51950;DHT22;37974;53.218;6.640;2023-08-20T03:59:54;14.20;99.90
51950;DHT22;37974;53.218;6.640;2023-08-20T04:02:19;14.20;99.90
51950;DHT22;37974;53.218;6.640;2023-08-20T04:04:45;14.20;99.90
51950;DHT22;37974;53.218;6.640;2023-08-20T04:07:11;14.20;99.90
51950;DHT22;37974;53.218;6.640;2023-08-20T04:09:36;14.10;99.90
51950;DHT22;37974;53.218;6.640;2023-08-20T04:12:04;14.10;99.90
51950;DHT22;37974;53.218;6.640;2023-08-20T04:14:30;14.10;99.90
51950;DHT22;37974;53.218;6.640;2023-08-20T04:16:55;14.10;99.90
51950;DHT22;37974;53.218;6.640;2023-08-20T04:19:21;14.10;99.90
51950;DHT22;37974;53.218;6.640;2023-08-20T04:21:49;14.10;99.90
51950;DHT22;37974;53.218;6.640;2023-08-20T04:24:22;14.00;99.90
51950;DHT22;37974;53.218;6.640;2023-08-20T04:26:48;14.00;99.90
51950;DHT22;37974;53.218;6.640;2023-08-20T04:29:14;14.00;99.90
51950;DHT22;37974;53.218;6.640;2023-08-20T04:31:51;14.00;99.90
51950;DHT22;37974;53.218;6.640;2023-08-20T04:34:18;14.00;99.90
51950;DHT22;37974;53.218;6.640;2023-08-20T04:36:46;13.90;99.90
51950;DHT22;37974;53.218;6.640;2023-08-20T04:39:12;13.90;99.90
51950;DHT22;37974;53.218;6.640;2023-08-20T04:41:38;13.90;99.90
51950;DHT22;37974;53.218;6.640;2023-08-20T04:44:04;13.90;99.90
51950;DHT22;37974;53.218;6.640;2023-08-20T04:46:29;13.90;99.90
51950;DHT22;37974;53.218;6.640;2023-08-20T04:48:55;14.00;99.90
51950;DHT22;37974;53.218;6.640;2023-08-20T04:51:21;14.10;99.90
51950;DHT22;37974;53.218;6.640;2023-08-20T04:53:47;14.20;99.90
51950;DHT22;37974;53.218;6.640;2023-08-20T04:56:13;14.30;99.90
51950;DHT22;37974;53.218;6.640;2023-08-20T04:58:39;14.40;99.90
51950;DHT22;37974;53.218;6.640;2023-08-20T05:01:05;14.50;99.90
51950;DHT22;37974;53.218;6.640;2023-08-20T05:03:31;14.60;99.90
51950;DHT22;37974;53.218;6.640;2023-08-20T05:05:57;14.70;99.90
51950;DHT22;37974;53.218;6.640;2023-08-20T05:08:22;14.70;99.90
51950;DHT22;37974;53.218;6.640;2023-08-20T05:10:49;14.80;99.90
51950;DHT22;37974;53.218;6.640;2023-08-20T05:13:15;14.90;99.90
51950;DHT22;37974;53.218;6.640;2023-08-20T05:15:42;15.00;99.90
51950;DHT22;37974;53.218;6.640;2023-08-20T05:18:08;15.10;99.90
51950;DHT22;37974;53.218;6.640;2023-08-20T05:20:33;15.10;99.90
51950;DHT22;37974;53.218;6.640;2023-08-20T05:22:59;15.10;99.90
51950;DHT22;37974;53.218;6.640;2023-08-20T05:25:25;15.20;99.90
51950;DHT22;37974;53.218;6.640;2023-08-20T05:27:51;15.30;99.90
51950;DHT22;37974;53.218;6.640;2023-08-20T05:30:16;15.30;99.90
51950;DHT22;37974;53.218;6.640;2023-08-20T05:32:42;15.40;99.90
51950;DHT22;37974;53.218;6.640;2023-08-20T05:35:08;15.40;99.90
51950;DHT22;37974;53.218;6.640;2023-08-20T05:37:34;15.50;99.90
51950;DHT22;37974;53.218;6.640;2023-08-20T05:40:03;15.60;99.90
51950;DHT22;37974;53.218;6.640;2023-08-20T05:42:29;15.60;99.90
51950;DHT22;37974;53.218;6.640;2023-08-20T05:44:54;15.70;99.90
51950;DHT22;37974;53.218;6.640;2023-08-20T05:47:20;15.80;99.90
51950;DHT22;37974;53.218;6.640;2023-08-20T05:49:46;15.90;99.90
51950;DHT22;37974;53.218;6.640;2023-08-20T05:52:11;15.90;99.90
51950;DHT22;37974;53.218;6.640;2023-08-20T05:54:37;16.00;99.90
51950;DHT22;37974;53.218;6.640;2023-08-20T05:57:03;16.10;99.90
51950;DHT22;37974;53.218;6.640;2023-08-20T05:59:29;16.20;99.90
51950;DHT22;37974;53.218;6.640;2023-08-20T06:01:54;16.30;99.90
51950;DHT22;37974;53.218;6.640;2023-08-20T06:04:21;16.40;99.90
51950;DHT22;37974;53.218;6.640;2023-08-20T06:06:46;16.50;99.90
51950;DHT22;37974;53.218;6.640;2023-08-20T06:09:12;16.60;99.90
51950;DHT22;37974;53.218;6.640;2023-08-20T06:11:38;16.70;99.90
51950;DHT22;37974;53.218;6.640;2023-08-20T06:14:04;16.80;99.90
51950;DHT22;37974;53.218;6.640;2023-08-20T06:16:30;16.80;99.90
51950;DHT22;37974;53.218;6.640;2023-08-20T06:18:57;17.00;99.90
51950;DHT22;37974;53.218;6.640;2023-08-20T06:21:23;17.10;99.90
51950;DHT22;37974;53.218;6.640;2023-08-20T06:23:49;17.20;99.90
51950;DHT22;37974;53.218;6.640;2023-08-20T06:26:14;17.20;99.90
51950;DHT22;37974;53.218;6.640;2023-08-20T06:28:40;17.30;99.90
51950;DHT22;37974;53.218;6.640;2023-08-20T06:31:06;17.40;99.90
51950;DHT22;37974;53.218;6.640;2023-08-20T06:33:32;17.50;99.90
51950;DHT22;37974;53.218;6.640;2023-08-20T06:35:57;17.60;99.90
51950;DHT22;37974;53.218;6.640;2023-08-20T06:38:23;17.70;99.90
51950;DHT22;37974;53.218;6.640;2023-08-20T06:40:50;17.70;99.90
51950;DHT22;37974;53.218;6.640;2023-08-20T06:43:16;17.90;99.90
51950;DHT22;37974;53.218;6.640;2023-08-20T06:45:41;17.90;99.90
51950;DHT22;37974;53.218;6.640;2023-08-20T06:48:07;18.00;99.90
51950;DHT22;37974;53.218;6.640;2023-08-20T06:50:33;18.10;99.90
51950;DHT22;37974;53.218;6.640;2023-08-20T06:52:58;18.20;99.90
51950;DHT22;37974;53.218;6.640;2023-08-20T06:55:24;18.30;99.90
51950;DHT22;37974;53.218;6.640;2023-08-20T06:57:50;18.40;99.90
51950;DHT22;37974;53.218;6.640;2023-08-20T07:00:15;18.50;99.90
51950;DHT22;37974;53.218;6.640;2023-08-20T07:02:41;18.50;99.90
51950;DHT22;37974;53.218;6.640;2023-08-20T07:05:07;18.70;99.90
51950;DHT22;37974;53.218;6.640;2023-08-20T07:07:35;18.70;99.90
51950;DHT22;37974;53.218;6.640;2023-08-20T07:10:04;18.80;99.90
51950;DHT22;37974;53.218;6.640;2023-08-20T07:12:30;18.90;99.90
51950;DHT22;37974;53.218;6.640;2023-08-20T07:14:55;19.00;99.90
51950;DHT22;37974;53.218;6.640;2023-08-20T07:17:21;19.10;99.90
51950;DHT22;37974;53.218;6.640;2023-08-20T07:19:47;19.20;99.90
51950;DHT22;37974;53.218;6.640;2023-08-20T07:22:13;19.30;99.90
51950;DHT22;37974;53.218;6.640;2023-08-20T07:24:39;19.30;99.90
51950;DHT22;37974;53.218;6.640;2023-08-20T07:27:04;19.40;99.90
51950;DHT22;37974;53.218;6.640;2023-08-20T07:29:36;19.50;99.90
51950;DHT22;37974;53.218;6.640;2023-08-20T07:32:02;19.60;99.90
51950;DHT22;37974;53.218;6.640;2023-08-20T07:34:29;19.70;99.90
51950;DHT22;37974;53.218;6.640;2023-08-20T07:36:56;19.80;99.90
51950;DHT22;37974;53.218;6.640;2023-08-20T07:39:22;19.90;99.90
51950;DHT22;37974;53.218;6.640;2023-08-20T07:41:48;19.90;99.90
51950;DHT22;37974;53.218;6.640;2023-08-20T07:44:13;20.00;99.90
51950;DHT22;37974;53.218;6.640;2023-08-20T07:46:39;20.10;99.90
51950;DHT22;37974;53.218;6.640;2023-08-20T07:49:05;20.10;99.90
51950;DHT22;37974;53.218;6.640;2023-08-20T07:51:30;20.20;99.90
51950;DHT22;37974;53.218;6.640;2023-08-20T07:53:56;20.20;99.90
51950;DHT22;37974;53.218;6.640;2023-08-20T07:56:23;20.30;99.90
51950;DHT22;37974;53.218;6.640;2023-08-20T07:58:49;20.40;99.90
51950;DHT22;37974;53.218;6.640;2023-08-20T08:01:15;20.50;99.90
51950;DHT22;37974;53.218;6.640;2023-08-20T08:03:42;20.50;99.90
51950;DHT22;37974;53.218;6.640;2023-08-20T08:06:08;20.60;99.90
51950;DHT22;37974;53.218;6.640;2023-08-20T08:08:33;20.70;99.90
51950;DHT22;37974;53.218;6.640;2023-08-20T08:10:59;20.80;99.90
51950;DHT22;37974;53.218;6.640;2023-08-20T08:13:25;20.80;99.90
51950;DHT22;37974;53.218;6.640;2023-08-20T08:15:51;20.90;99.90
51950;DHT22;37974;53.218;6.640;2023-08-20T08:18:18;20.90;99.90
51950;DHT22;37974;53.218;6.640;2023-08-20T08:20:44;21.00;99.90
51950;DHT22;37974;53.218;6.640;2023-08-20T08:23:10;21.10;99.90
51950;DHT22;37974;53.218;6.640;2023-08-20T08:25:36;21.30;99.90
51950;DHT22;37974;53.218;6.640;2023-08-20T08:28:03;21.40;99.90
51950;DHT22;37974;53.218;6.640;2023-08-20T08:30:29;21.40;99.90
51950;DHT22;37974;53.218;6.640;2023-08-20T08:32:55;21.50;99.90
51950;DHT22;37974;53.218;6.640;2023-08-20T08:35:21;21.50;99.90
51950;DHT22;37974;53.218;6.640;2023-08-20T08:37:47;21.60;99.90
51950;DHT22;37974;53.218;6.640;2023-08-20T08:40:14;21.70;99.90
51950;DHT22;37974;53.218;6.640;2023-08-20T08:42:41;21.70;99.90
51950;DHT22;37974;53.218;6.640;2023-08-20T08:45:09;21.80;99.90
51950;DHT22;37974;53.218;6.640;2023-08-20T08:47:35;21.80;99.90
51950;DHT22;37974;53.218;6.640;2023-08-20T08:50:02;21.90;99.90
51950;DHT22;37974;53.218;6.640;2023-08-20T08:52:28;22.00;99.90
51950;DHT22;37974;53.218;6.640;2023-08-20T08:54:53;22.00;99.90
51950;DHT22;37974;53.218;6.640;2023-08-20T08:57:19;22.10;99.90
51950;DHT22;37974;53.218;6.640;2023-08-20T08:59:45;22.20;99.90
51950;DHT22;37974;53.218;6.640;2023-08-20T09:02:12;22.30;99.90
51950;DHT22;37974;53.218;6.640;2023-08-20T09:04:42;22.40;99.90
51950;DHT22;37974;53.218;6.640;2023-08-20T09:07:15;22.40;99.90
51950;DHT22;37974;53.218;6.640;2023-08-20T09:09:45;22.40;99.90
51950;DHT22;37974;53.218;6.640;2023-08-20T09:12:15;22.50;99.90
51950;DHT22;37974;53.218;6.640;2023-08-20T09:14:51;22.60;99.90
51950;DHT22;37974;53.218;6.640;2023-08-20T09:17:17;22.70;99.90
51950;DHT22;37974;53.218;6.640;2023-08-20T09:19:45;22.70;99.90
51950;DHT22;37974;53.218;6.640;2023-08-20T09:22:12;22.80;99.90
51950;DHT22;37974;53.218;6.640;2023-08-20T09:24:46;22.90;99.90
51950;DHT22;37974;53.218;6.640;2023-08-20T09:27:12;23.00;99.90
51950;DHT22;37974;53.218;6.640;2023-08-20T09:29:55;23.10;99.90
51950;DHT22;37974;53.218;6.640;2023-08-20T09:32:27;23.10;99.90
51950;DHT22;37974;53.218;6.640;2023-08-20T09:34:55;23.10;99.90
51950;DHT22;37974;53.218;6.640;2023-08-20T09:37:22;23.20;99.90
51950;DHT22;37974;53.218;6.640;2023-08-20T09:39:48;23.30;99.90
51950;DHT22;37974;53.218;6.640;2023-08-20T09:42:15;23.40;99.90
51950;DHT22;37974;53.218;6.640;2023-08-20T09:44:45;23.40;99.90
51950;DHT22;37974;53.218;6.640;2023-08-20T09:47:15;23.50;99.90
51950;DHT22;37974;53.218;6.640;2023-08-20T09:49:43;23.50;99.90
51950;DHT22;37974;53.218;6.640;2023-08-20T09:52:11;23.60;99.90
51950;DHT22;37974;53.218;6.640;2023-08-20T09:57:39;23.60;99.90
51950;DHT22;37974;53.218;6.640;2023-08-20T10:00:07;23.40;99.90
51950;DHT22;37974;53.218;6.640;2023-08-20T10:02:43;23.40;99.90
51950;DHT22;37974;53.218;6.640;2023-08-20T10:05:11;23.40;99.90
51950;DHT22;37974;53.218;6.640;2023-08-20T10:07:38;23.50;99.90
51950;DHT22;37974;53.218;6.640;2023-08-20T10:10:06;23.70;99.90
51950;DHT22;37974;53.218;6.640;2023-08-20T10:12:32;23.90;99.90
51950;DHT22;37974;53.218;6.640;2023-08-20T10:15:02;24.00;99.90
51950;DHT22;37974;53.218;6.640;2023-08-20T10:17:33;24.10;99.90
51950;DHT22;37974;53.218;6.640;2023-08-20T10:19:59;24.10;99.90
51950;DHT22;37974;53.218;6.640;2023-08-20T10:22:52;24.00;99.90
51950;DHT22;37974;53.218;6.640;2023-08-20T10:25:25;24.20;99.90
51950;DHT22;37974;53.218;6.640;2023-08-20T10:28:10;24.20;99.90
51950;DHT22;37974;53.218;6.640;2023-08-20T10:30:36;24.10;99.90
51950;DHT22;37974;53.218;6.640;2023-08-20T10:33:02;24.10;99.90
51950;DHT22;37974;53.218;6.640;2023-08-20T10:38:05;24.00;99.90
51950;DHT22;37974;53.218;6.640;2023-08-20T10:40:55;23.90;99.90
51950;DHT22;37974;53.218;6.640;2023-08-20T10:43:32;23.80;99.90
51950;DHT22;37974;53.218;6.640;2023-08-20T10:46:19;23.80;99.90
51950;DHT22;37974;53.218;6.640;2023-08-20T10:48:53;23.90;99.90
51950;DHT22;37974;53.218;6.640;2023-08-20T10:56:48;24.10;99.90
51950;DHT22;37974;53.218;6.640;2023-08-20T10:59:18;24.20;99.90
51950;DHT22;37974;53.218;6.640;2023-08-20T11:01:48;24.20;99.90
51950;DHT22;37974;53.218;6.640;2023-08-20T11:04:15;24.20;99.90
51950;DHT22;37974;53.218;6.640;2023-08-20T11:06:41;24.20;99.90
51950;DHT22;37974;53.218;6.640;2023-08-20T11:09:07;24.00;99.90
51950;DHT22;37974;53.218;6.640;2023-08-20T11:11:33;24.00;99.90
51950;DHT22;37974;53.218;6.640;2023-08-20T11:14:11;24.00;99.90
51950;DHT22;37974;53.218;6.640;2023-08-20T11:16:37;24.00;99.90
51950;DHT22;37974;53.218;6.640;2023-08-20T11:19:04;24.20;99.90
51950;DHT22;37974;53.218;6.640;2023-08-20T11:21:34;24.30;99.90
51950;DHT22;37974;53.218;6.640;2023-08-20T11:24:01;24.50;99.90
51950;DHT22;37974;53.218;6.640;2023-08-20T11:26:27;24.60;99.90
51950;DHT22;37974;53.218;6.640;2023-08-20T11:28:53;24.70;99.90
51950;DHT22;37974;53.218;6.640;2023-08-20T11:31:19;24.80;99.90
51950;DHT22;37974;53.218;6.640;2023-08-20T11:33:45;24.90;99.90
51950;DHT22;37974;53.218;6.640;2023-08-20T11:36:19;25.00;99.90
51950;DHT22;37974;53.218;6.640;2023-08-20T11:38:54;25.00;99.90
51950;DHT22;37974;53.218;6.640;2023-08-20T11:41:24;25.00;99.90
51950;DHT22;37974;53.218;6.640;2023-08-20T11:43:52;25.10;99.90
51950;DHT22;37974;53.218;6.640;2023-08-20T11:46:22;25.20;99.90
51950;DHT22;37974;53.218;6.640;2023-08-20T11:49:04;25.30;99.90
51950;DHT22;37974;53.218;6.640;2023-08-20T11:51:41;25.30;99.90
51950;DHT22;37974;53.218;6.640;2023-08-20T11:54:11;25.20;99.90
51950;DHT22;37974;53.218;6.640;2023-08-20T11:56:44;25.10;99.90
51950;DHT22;37974;53.218;6.640;2023-08-20T11:59:11;25.00;99.90
51950;DHT22;37974;53.218;6.640;2023-08-20T12:01:37;24.90;99.90
51950;DHT22;37974;53.218;6.640;2023-08-20T12:04:07;24.90;99.90
51950;DHT22;37974;53.218;6.640;2023-08-20T12:06:38;24.80;99.90
51950;DHT22;37974;53.218;6.640;2023-08-20T12:09:23;24.90;99.90
51950;DHT22;37974;53.218;6.640;2023-08-20T12:11:52;25.10;99.90
51950;DHT22;37974;53.218;6.640;2023-08-20T12:14:21;25.10;99.90
51950;DHT22;37974;53.218;6.640;2023-08-20T12:16:47;25.10;99.90
51950;DHT22;37974;53.218;6.640;2023-08-20T12:19:13;25.10;99.90
51950;DHT22;37974;53.218;6.640;2023-08-20T12:21:40;25.10;99.90
51950;DHT22;37974;53.218;6.640;2023-08-20T12:24:08;25.10;99.90
51950;DHT22;37974;53.218;6.640;2023-08-20T12:26:34;25.10;99.90
51950;DHT22;37974;53.218;6.640;2023-08-20T12:28:59;25.10;99.90
51950;DHT22;37974;53.218;6.640;2023-08-20T12:31:25;25.30;99.90
51950;DHT22;37974;53.218;6.640;2023-08-20T12:33:51;25.40;99.90
51950;DHT22;37974;53.218;6.640;2023-08-20T12:36:16;25.40;99.90
51950;DHT22;37974;53.218;6.640;2023-08-20T12:38:42;25.40;99.90
51950;DHT22;37974;53.218;6.640;2023-08-20T12:41:08;25.40;99.90
51950;DHT22;37974;53.218;6.640;2023-08-20T12:43:33;25.30;99.90
51950;DHT22;37974;53.218;6.640;2023-08-20T12:45:59;25.30;99.90
51950;DHT22;37974;53.218;6.640;2023-08-20T12:48:25;25.30;99.90
51950;DHT22;37974;53.218;6.640;2023-08-20T12:50:51;25.20;99.90
51950;DHT22;37974;53.218;6.640;2023-08-20T12:53:16;25.20;99.90
51950;DHT22;37974;53.218;6.640;2023-08-20T12:55:42;25.20;99.90
51950;DHT22;37974;53.218;6.640;2023-08-20T12:58:08;25.20;99.90
51950;DHT22;37974;53.218;6.640;2023-08-20T13:00:33;25.20;99.90
51950;DHT22;37974;53.218;6.640;2023-08-20T13:02:59;25.20;99.90
51950;DHT22;37974;53.218;6.640;2023-08-20T13:05:26;25.30;99.90
51950;DHT22;37974;53.218;6.640;2023-08-20T13:07:52;25.30;99.90
51950;DHT22;37974;53.218;6.640;2023-08-20T13:10:18;25.40;99.90
51950;DHT22;37974;53.218;6.640;2023-08-20T13:12:52;25.30;99.90
51950;DHT22;37974;53.218;6.640;2023-08-20T13:15:22;25.30;99.90
51950;DHT22;37974;53.218;6.640;2023-08-20T13:17:49;25.40;99.90
51950;DHT22;37974;53.218;6.640;2023-08-20T13:20:15;25.40;99.90
51950;DHT22;37974;53.218;6.640;2023-08-20T13:22:49;25.50;99.90
51950;DHT22;37974;53.218;6.640;2023-08-20T13:25:16;25.50;99.90
51950;DHT22;37974;53.218;6.640;2023-08-20T13:27:41;25.60;99.90
51950;DHT22;37974;53.218;6.640;2023-08-20T13:30:08;25.70;99.90
51950;DHT22;37974;53.218;6.640;2023-08-20T13:32:35;25.70;99.90
51950;DHT22;37974;53.218;6.640;2023-08-20T13:35:01;25.70;99.90
51950;DHT22;37974;53.218;6.640;2023-08-20T13:37:28;25.60;99.90
51950;DHT22;37974;53.218;6.640;2023-08-20T13:39:54;25.30;99.90
51950;DHT22;37974;53.218;6.640;2023-08-20T13:42:20;25.10;99.90
51950;DHT22;37974;53.218;6.640;2023-08-20T13:44:45;25.10;99.90
51950;DHT22;37974;53.218;6.640;2023-08-20T13:47:11;25.10;99.90
51950;DHT22;37974;53.218;6.640;2023-08-20T13:49:37;25.10;99.90
51950;DHT22;37974;53.218;6.640;2023-08-20T13:52:03;24.90;99.90
51950;DHT22;37974;53.218;6.640;2023-08-20T13:54:29;24.90;99.90
51950;DHT22;37974;53.218;6.640;2023-08-20T13:56:54;25.00;99.90
51950;DHT22;37974;53.218;6.640;2023-08-20T13:59:20;25.10;99.90
51950;DHT22;37974;53.218;6.640;2023-08-20T14:01:46;25.10;99.90
51950;DHT22;37974;53.218;6.640;2023-08-20T14:04:12;25.10;99.90
51950;DHT22;37974;53.218;6.640;2023-08-20T14:06:38;25.20;99.90
51950;DHT22;37974;53.218;6.640;2023-08-20T14:09:04;25.20;99.90
51950;DHT22;37974;53.218;6.640;2023-08-20T14:11:30;25.10;99.90
51950;DHT22;37974;53.218;6.640;2023-08-20T14:13:56;25.10;99.90
51950;DHT22;37974;53.218;6.640;2023-08-20T14:16:22;25.10;99.90
51950;DHT22;37974;53.218;6.640;2023-08-20T14:18:47;25.20;99.90
51950;DHT22;37974;53.218;6.640;2023-08-20T14:21:13;25.30;99.90
51950;DHT22;37974;53.218;6.640;2023-08-20T14:23:39;25.30;99.90
51950;DHT22;37974;53.218;6.640;2023-08-20T14:26:06;25.10;99.90
51950;DHT22;37974;53.218;6.640;2023-08-20T14:28:33;25.10;99.90
51950;DHT22;37974;53.218;6.640;2023-08-20T14:31:05;25.30;99.90
51950;DHT22;37974;53.218;6.640;2023-08-20T14:33:31;25.40;99.90
51950;DHT22;37974;53.218;6.640;2023-08-20T14:35:57;25.50;99.90
51950;DHT22;37974;53.218;6.640;2023-08-20T14:38:22;25.40;99.90
51950;DHT22;37974;53.218;6.640;2023-08-20T14:40:48;25.40;99.90
51950;DHT22;37974;53.218;6.640;2023-08-20T14:43:14;25.50;99.90
51950;DHT22;37974;53.218;6.640;2023-08-20T14:45:40;25.70;99.90
51950;DHT22;37974;53.218;6.640;2023-08-20T14:48:05;25.70;99.90
51950;DHT22;37974;53.218;6.640;2023-08-20T14:50:31;25.80;99.90
51950;DHT22;37974;53.218;6.640;2023-08-20T14:52:58;25.80;99.90
51950;DHT22;37974;53.218;6.640;2023-08-20T14:55:23;25.70;99.90
51950;DHT22;37974;53.218;6.640;2023-08-20T14:57:49;25.50;99.90
51950;DHT22;37974;53.218;6.640;2023-08-20T15:00:15;25.40;99.90
51950;DHT22;37974;53.218;6.640;2023-08-20T15:02:46;25.40;99.90
51950;DHT22;37974;53.218;6.640;2023-08-20T15:05:12;25.30;99.90
51950;DHT22;37974;53.218;6.640;2023-08-20T15:07:38;25.30;99.90
51950;DHT22;37974;53.218;6.640;2023-08-20T15:10:05;25.30;99.90
51950;DHT22;37974;53.218;6.640;2023-08-20T15:12:33;25.30;99.90
51950;DHT22;37974;53.218;6.640;2023-08-20T15:15:00;25.40;99.90
51950;DHT22;37974;53.218;6.640;2023-08-20T15:17:26;25.40;99.90
51950;DHT22;37974;53.218;6.640;2023-08-20T15:19:52;25.40;99.90
51950;DHT22;37974;53.218;6.640;2023-08-20T15:22:18;25.40;99.90
51950;DHT22;37974;53.218;6.640;2023-08-20T15:24:44;25.40;99.90
51950;DHT22;37974;53.218;6.640;2023-08-20T15:27:10;25.50;99.90
51950;DHT22;37974;53.218;6.640;2023-08-20T15:29:35;25.50;99.90
51950;DHT22;37974;53.218;6.640;2023-08-20T15:32:01;25.60;99.90
51950;DHT22;37974;53.218;6.640;2023-08-20T15:34:27;25.60;99.90
51950;DHT22;37974;53.218;6.640;2023-08-20T15:36:52;25.70;99.90
51950;DHT22;37974;53.218;6.640;2023-08-20T15:39:18;25.60;99.90
51950;DHT22;37974;53.218;6.640;2023-08-20T15:41:45;25.40;99.90
51950;DHT22;37974;53.218;6.640;2023-08-20T15:44:12;25.20;99.90